sensor_id;sensor_type;location;lat;lon;timestamp;temperature;humidity
26907;DHT22;14472;56.880;16.658;2023-11-22T00:01:22;3.50;99.90
26907;DHT22;14472;56.880;16.658;2023-11-22T00:03:48;3.60;99.90
26907;DHT22;14472;56.880;16.658;2023-11-22T00:06:14;3.40;99.90
26907;DHT22;14472;56.880;16.658;2023-11-22T00:08:39;3.10;99.90
26907;DHT22;14472;56.880;16.658;2023-11-22T00:11:05;2.90;99.90
26907;DHT22;14472;56.880;16.658;2023-11-22T00:13:31;2.80;99.90
26907;DHT22;14472;56.880;16.658;2023-11-22T00:15:57;2.80;99.90
26907;DHT22;14472;56.880;16.658;2023-11-22T00:18:23;3.00;99.90
26907;DHT22;14472;56.880;16.658;2023-11-22T00:20:50;2.90;99.90
26907;DHT22;14472;56.880;16.658;2023-11-22T00:23:15;2.70;99.90
26907;DHT22;14472;56.880;16.658;2023-11-22T00:25:41;2.70;99.90
26907;DHT22;14472;56.880;16.658;2023-11-22T00:28:07;2.60;99.90
26907;DHT22;14472;56.880;16.658;2023-11-22T00:30:33;2.60;99.90
26907;DHT22;14472;56.880;16.658;2023-11-22T00:32:59;2.60;99.90
26907;DHT22;14472;56.880;16.658;2023-11-22T00:35:25;2.60;99.90
26907;DHT22;14472;56.880;16.658;2023-11-22T00:37:50;2.50;99.90
26907;DHT22;14472;56.880;16.658;2023-11-22T00:40:16;2.50;99.90
26907;DHT22;14472;56.880;16.658;2023-11-22T00:42:42;2.60;99.90
26907;DHT22;14472;56.880;16.658;2023-11-22T00:45:09;2.40;99.90
26907;DHT22;14472;56.880;16.658;2023-11-22T00:47:36;2.50;99.90
26907;DHT22;14472;56.880;16.658;2023-11-22T00:50:02;2.40;99.90
26907;DHT22;14472;56.880;16.658;2023-11-22T00:52:30;2.40;99.90
26907;DHT22;14472;56.880;16.658;2023-11-22T00:54:56;2.40;99.90
26907;DHT22;14472;56.880;16.658;2023-11-22T00:57:21;2.40;99.90
26907;DHT22;14472;56.880;16.658;2023-11-22T00:59:47;2.20;99.90
26907;DHT22;14472;56.880;16.658;2023-11-22T01:02:13;2.20;99.90
26907;DHT22;14472;56.880;16.658;2023-11-22T01:04:39;2.20;99.90
26907;DHT22;14472;56.880;16.658;2023-11-22T01:07:05;2.20;99.90
26907;DHT22;14472;56.880;16.658;2023-11-22T01:09:32;2.20;99.90
26907;DHT22;14472;56.880;16.658;2023-11-22T01:11:58;2.20;99.90
26907;DHT22;14472;56.880;16.658;2023-11-22T01:14:24;2.30;99.90
26907;DHT22;14472;56.880;16.658;2023-11-22T01:16:51;2.20;99.90
26907;DHT22;14472;56.880;16.658;2023-11-22T01:19:17;2.20;99.90
26907;DHT22;14472;56.880;16.658;2023-11-22T01:21:43;2.30;99.90
26907;DHT22;14472;56.880;16.658;2023-11-22T01:24:09;2.20;99.90
26907;DHT22;14472;56.880;16.658;2023-11-22T01:26:35;2.20;99.90
26907;DHT22;14472;56.880;16.658;2023-11-22T01:29:00;2.20;99.90
26907;DHT22;14472;56.880;16.658;2023-11-22T01:31:28;2.20;99.90
26907;DHT22;14472;56.880;16.658;2023-11-22T01:33:54;2.20;99.90
26907;DHT22;14472;56.880;16.658;2023-11-22T01:36:20;2.20;99.90
26907;DHT22;14472;56.880;16.658;2023-11-22T01:38:45;2.20;99.90
26907;DHT22;14472;56.880;16.658;2023-11-22T01:41:12;2.30;99.90
26907;DHT22;14472;56.880;16.658;2023-11-22T01:43:39;2.30;99.90
26907;DHT22;14472;56.880;16.658;2023-11-22T01:46:07;2.30;99.90
26907;DHT22;14472;56.880;16.658;2023-11-22T01:48:34;2.30;99.90
26907;DHT22;14472;56.880;16.658;2023-11-22T01:51:01;2.30;99.90
26907;DHT22;14472;56.880;16.658;2023-11-22T01:53:27;2.30;99.90
26907;DHT22;14472;56.880;16.658;2023-11-22T01:55:53;2.30;99.90
26907;DHT22;14472;56.880;16.658;2023-11-22T01:58:19;2.30;99.90
26907;DHT22;14472;56.880;16.658;2023-11-22T02:00:51;2.30;99.90
26907;DHT22;14472;56.880;16.658;2023-11-22T02:03:18;2.30;99.90
26907;DHT22;14472;56.880;16.658;2023-11-22T02:05:44;2.30;99.90
26907;DHT22;14472;56.880;16.658;2023-11-22T02:08:11;2.30;99.90
26907;DHT22;14472;56.880;16.658;2023-11-22T02:10:37;2.30;99.90
26907;DHT22;14472;56.880;16.658;2023-11-22T02:13:06;2.40;99.90
26907;DHT22;14472;56.880;16.658;2023-11-22T02:15:36;2.30;99.90
26907;DHT22;14472;56.880;16.658;2023-11-22T02:18:03;2.40;99.90
26907;DHT22;14472;56.880;16.658;2023-11-22T02:20:32;2.40;99.90
26907;DHT22;14472;56.880;16.658;2023-11-22T02:23:07;2.40;99.90
26907;DHT22;14472;56.880;16.658;2023-11-22T02:25:33;2.50;99.90
26907;DHT22;14472;56.880;16.658;2023-11-22T02:27:59;2.50;99.90
26907;DHT22;14472;56.880;16.658;2023-11-22T02:30:25;2.50;99.90
26907;DHT22;14472;56.880;16.658;2023-11-22T02:32:51;2.50;99.90
26907;DHT22;14472;56.880;16.658;2023-11-22T02:35:17;2.50;99.90
26907;DHT22;14472;56.880;16.658;2023-11-22T02:37:43;2.60;99.90
26907;DHT22;14472;56.880;16.658;2023-11-22T02:42:46;2.60;99.90
26907;DHT22;14472;56.880;16.658;2023-11-22T02:45:13;2.60;99.90
26907;DHT22;14472;56.880;16.658;2023-11-22T02:47:39;2.60;99.90
26907;DHT22;14472;56.880;16.658;2023-11-22T02:50:05;2.60;99.90
26907;DHT22;14472;56.880;16.658;2023-11-22T02:52:32;2.60;99.90
26907;DHT22;14472;56.880;16.658;2023-11-22T02:54:58;2.60;99.90
26907;DHT22;14472;56.880;16.658;2023-11-22T02:57:24;2.70;99.90
26907;DHT22;14472;56.880;16.658;2023-11-22T02:59:51;2.70;99.90
26907;DHT22;14472;56.880;16.658;2023-11-22T03:02:17;2.60;99.90
26907;DHT22;14472;56.880;16.658;2023-11-22T03:04:43;2.70;99.90
26907;DHT22;14472;56.880;16.658;2023-11-22T03:07:09;2.90;99.90
26907;DHT22;14472;56.880;16.658;2023-11-22T03:09:35;3.00;99.90
26907;DHT22;14472;56.880;16.658;2023-11-22T03:12:02;3.10;99.90
26907;DHT22;14472;56.880;16.658;2023-11-22T03:14:28;3.20;99.90
26907;DHT22;14472;56.880;16.658;2023-11-22T03:16:55;2.80;99.90
26907;DHT22;14472;56.880;16.658;2023-11-22T03:19:20;2.50;99.90
26907;DHT22;14472;56.880;16.658;2023-11-22T03:21:46;2.30;99.90
26907;DHT22;14472;56.880;16.658;2023-11-22T03:24:12;2.20;99.90
26907;DHT22;14472;56.880;16.658;2023-11-22T03:26:38;2.20;99.90
26907;DHT22;14472;56.880;16.658;2023-11-22T03:29:04;2.40;99.90
26907;DHT22;14472;56.880;16.658;2023-11-22T03:31:30;2.20;99.90
26907;DHT22;14472;56.880;16.658;2023-11-22T03:33:57;2.10;99.90
26907;DHT22;14472;56.880;16.658;2023-11-22T03:36:22;2.10;99.90
26907;DHT22;14472;56.880;16.658;2023-11-22T03:38:49;2.00;99.90
26907;DHT22;14472;56.880;16.658;2023-11-22T03:41:16;1.90;99.90
26907;DHT22;14472;56.880;16.658;2023-11-22T03:43:44;1.90;99.90
26907;DHT22;14472;56.880;16.658;2023-11-22T03:46:10;1.80;99.90
26907;DHT22;14472;56.880;16.658;2023-11-22T03:48:37;1.80;99.90
26907;DHT22;14472;56.880;16.658;2023-11-22T03:51:03;1.70;99.90
26907;DHT22;14472;56.880;16.658;2023-11-22T03:53:28;1.70;99.90
26907;DHT22;14472;56.880;16.658;2023-11-22T03:55:54;1.60;99.90
26907;DHT22;14472;56.880;16.658;2023-11-22T03:58:20;1.70;99.90
26907;DHT22;14472;56.880;16.658;2023-11-22T04:00:46;1.70;99.90
26907;DHT22;14472;56.880;16.658;2023-11-22T04:03:12;1.60;99.90
26907;DHT22;14472;56.880;16.658;2023-11-22T04:05:38;1.60;99.90
26907;DHT22;14472;56.880;16.658;2023-11-22T04:08:04;1.70;99.90
26907;DHT22;14472;56.880;16.658;2023-11-22T04:10:29;1.60;99.90
26907;DHT22;14472;56.880;16.658;2023-11-22T04:12:56;1.60;99.90
26907;DHT22;14472;56.880;16.658;2023-11-22T04:15:22;1.60;99.90
26907;DHT22;14472;56.880;16.658;2023-11-22T04:17:48;1.60;99.90
26907;DHT22;14472;56.880;16.658;2023-11-22T04:20:14;1.60;99.90
26907;DHT22;14472;56.880;16.658;2023-11-22T04:22:41;1.60;99.90
26907;DHT22;14472;56.880;16.658;2023-11-22T04:25:07;1.50;99.90
26907;DHT22;14472;56.880;16.658;2023-11-22T04:27:34;1.60;99.90
26907;DHT22;14472;56.880;16.658;2023-11-22T04:30:00;1.50;99.90
26907;DHT22;14472;56.880;16.658;2023-11-22T04:32:26;1.50;99.90
26907;DHT22;14472;56.880;16.658;2023-11-22T04:34:52;1.40;99.90
26907;DHT22;14472;56.880;16.658;2023-11-22T04:37:17;1.40;99.90
26907;DHT22;14472;56.880;16.658;2023-11-22T04:39:43;1.40;99.90
26907;DHT22;14472;56.880;16.658;2023-11-22T04:42:09;1.40;99.90
26907;DHT22;14472;56.880;16.658;2023-11-22T04:44:35;1.40;99.90
26907;DHT22;14472;56.880;16.658;2023-11-22T04:47:00;1.40;99.90
26907;DHT22;14472;56.880;16.658;2023-11-22T04:49:26;1.30;99.90
26907;DHT22;14472;56.880;16.658;2023-11-22T04:51:52;1.30;99.90
26907;DHT22;14472;56.880;16.658;2023-11-22T04:54:18;1.40;99.90
26907;DHT22;14472;56.880;16.658;2023-11-22T04:56:44;1.40;99.90
26907;DHT22;14472;56.880;16.658;2023-11-22T04:59:10;1.30;99.90
26907;DHT22;14472;56.880;16.658;2023-11-22T05:01:35;1.30;99.90
26907;DHT22;14472;56.880;16.658;2023-11-22T05:04:01;1.40;99.90
26907;DHT22;14472;56.880;16.658;2023-11-22T05:06:27;1.40;99.90
26907;DHT22;14472;56.880;16.658;2023-11-22T05:08:54;1.40;99.90
26907;DHT22;14472;56.880;16.658;2023-11-22T05:11:21;1.40;99.90
26907;DHT22;14472;56.880;16.658;2023-11-22T05:13:46;1.40;99.90
26907;DHT22;14472;56.880;16.658;2023-11-22T05:16:12;1.50;99.90
26907;DHT22;14472;56.880;16.658;2023-11-22T05:18:38;1.50;99.90
26907;DHT22;14472;56.880;16.658;2023-11-22T05:21:04;1.60;99.90
26907;DHT22;14472;56.880;16.658;2023-11-22T05:23:30;1.60;99.90
26907;DHT22;14472;56.880;16.658;2023-11-22T05:25:59;1.70;99.90
26907;DHT22;14472;56.880;16.658;2023-11-22T05:28:29;1.70;99.90
26907;DHT22;14472;56.880;16.658;2023-11-22T05:30:54;1.80;99.90
26907;DHT22;14472;56.880;16.658;2023-11-22T05:33:20;1.80;99.90
26907;DHT22;14472;56.880;16.658;2023-11-22T05:35:46;1.80;99.90
26907;DHT22;14472;56.880;16.658;2023-11-22T05:38:12;1.80;99.90
26907;DHT22;14472;56.880;16.658;2023-11-22T05:40:37;1.80;99.90
26907;DHT22;14472;56.880;16.658;2023-11-22T05:43:04;1.80;99.90
26907;DHT22;14472;56.880;16.658;2023-11-22T05:45:30;1.80;99.90
26907;DHT22;14472;56.880;16.658;2023-11-22T05:47:56;1.80;99.90
26907;DHT22;14472;56.880;16.658;2023-11-22T05:50:21;1.80;99.90
26907;DHT22;14472;56.880;16.658;2023-11-22T05:52:47;1.80;99.90
26907;DHT22;14472;56.880;16.658;2023-11-22T05:55:13;1.80;99.90
26907;DHT22;14472;56.880;16.658;2023-11-22T05:57:40;1.80;99.90
26907;DHT22;14472;56.880;16.658;2023-11-22T06:00:07;1.80;99.90
26907;DHT22;14472;56.880;16.658;2023-11-22T06:02:33;1.80;99.90
26907;DHT22;14472;56.880;16.658;2023-11-22T06:04:59;1.70;99.90
26907;DHT22;14472;56.880;16.658;2023-11-22T06:07:25;1.80;99.90
26907;DHT22;14472;56.880;16.658;2023-11-22T06:09:51;1.80;99.90
26907;DHT22;14472;56.880;16.658;2023-11-22T06:12:17;1.70;99.90
26907;DHT22;14472;56.880;16.658;2023-11-22T06:14:44;1.70;99.90
26907;DHT22;14472;56.880;16.658;2023-11-22T06:17:11;1.70;99.90
26907;DHT22;14472;56.880;16.658;2023-11-22T06:19:37;1.70;99.90
26907;DHT22;14472;56.880;16.658;2023-11-22T06:22:03;1.70;99.90
26907;DHT22;14472;56.880;16.658;2023-11-22T06:24:29;1.70;99.90
26907;DHT22;14472;56.880;16.658;2023-11-22T06:26:54;1.70;99.90
26907;DHT22;14472;56.880;16.658;2023-11-22T06:29:20;1.70;99.90
26907;DHT22;14472;56.880;16.658;2023-11-22T06:31:46;1.70;99.90
26907;DHT22;14472;56.880;16.658;2023-11-22T06:34:12;1.80;99.90
26907;DHT22;14472;56.880;16.658;2023-11-22T06:36:38;1.70;99.90
26907;DHT22;14472;56.880;16.658;2023-11-22T06:39:03;1.80;99.90
26907;DHT22;14472;56.880;16.658;2023-11-22T06:41:30;1.80;99.90
26907;DHT22;14472;56.880;16.658;2023-11-22T06:43:56;1.80;99.90
26907;DHT22;14472;56.880;16.658;2023-11-22T06:46:23;1.80;99.90
26907;DHT22;14472;56.880;16.658;2023-11-22T06:48:49;1.80;99.90
26907;DHT22;14472;56.880;16.658;2023-11-22T06:51:15;1.80;99.90
26907;DHT22;14472;56.880;16.658;2023-11-22T06:53:41;1.80;99.90
26907;DHT22;14472;56.880;16.658;2023-11-22T06:56:07;1.80;99.90
26907;DHT22;14472;56.880;16.658;2023-11-22T06:58:32;1.90;99.90
26907;DHT22;14472;56.880;16.658;2023-11-22T07:00:58;1.90;99.90
26907;DHT22;14472;56.880;16.658;2023-11-22T07:03:24;1.90;99.90
26907;DHT22;14472;56.880;16.658;2023-11-22T07:05:49;1.90;99.90
26907;DHT22;14472;56.880;16.658;2023-11-22T07:08:16;1.90;99.90
26907;DHT22;14472;56.880;16.658;2023-11-22T07:10:45;1.90;99.90
26907;DHT22;14472;56.880;16.658;2023-11-22T07:13:14;1.90;99.90
26907;DHT22;14472;56.880;16.658;2023-11-22T07:15:40;1.90;99.90
26907;DHT22;14472;56.880;16.658;2023-11-22T07:18:06;1.90;99.90
26907;DHT22;14472;56.880;16.658;2023-11-22T07:20:33;1.90;99.90
26907;DHT22;14472;56.880;16.658;2023-11-22T07:22:58;1.90;99.90
26907;DHT22;14472;56.880;16.658;2023-11-22T07:25:25;1.90;99.90
26907;DHT22;14472;56.880;16.658;2023-11-22T07:27:52;1.90;99.90
26907;DHT22;14472;56.880;16.658;2023-11-22T07:30:21;1.90;99.90
26907;DHT22;14472;56.880;16.658;2023-11-22T07:32:51;2.00;99.90
26907;DHT22;14472;56.880;16.658;2023-11-22T07:35:19;2.00;99.90
26907;DHT22;14472;56.880;16.658;2023-11-22T07:37:46;2.00;99.90
26907;DHT22;14472;56.880;16.658;2023-11-22T07:40:13;1.90;99.90
26907;DHT22;14472;56.880;16.658;2023-11-22T07:42:40;1.70;99.90
26907;DHT22;14472;56.880;16.658;2023-11-22T07:45:07;1.60;99.90
26907;DHT22;14472;56.880;16.658;2023-11-22T07:47:35;1.60;99.90
26907;DHT22;14472;56.880;16.658;2023-11-22T07:50:01;1.50;99.90
26907;DHT22;14472;56.880;16.658;2023-11-22T07:52:28;1.50;99.90
26907;DHT22;14472;56.880;16.658;2023-11-22T07:54:58;1.50;99.90
26907;DHT22;14472;56.880;16.658;2023-11-22T07:57:27;1.50;99.90
26907;DHT22;14472;56.880;16.658;2023-11-22T07:59:54;1.50;99.90
26907;DHT22;14472;56.880;16.658;2023-11-22T08:02:21;1.60;99.90
26907;DHT22;14472;56.880;16.658;2023-11-22T08:04:47;1.50;99.90
26907;DHT22;14472;56.880;16.658;2023-11-22T08:07:14;1.50;99.90
26907;DHT22;14472;56.880;16.658;2023-11-22T08:09:41;1.50;99.90
26907;DHT22;14472;56.880;16.658;2023-11-22T08:12:07;1.50;99.90
26907;DHT22;14472;56.880;16.658;2023-11-22T08:14:33;1.50;99.90
26907;DHT22;14472;56.880;16.658;2023-11-22T08:16:59;1.60;99.90
26907;DHT22;14472;56.880;16.658;2023-11-22T08:19:25;1.50;99.90
26907;DHT22;14472;56.880;16.658;2023-11-22T08:21:50;1.50;99.90
26907;DHT22;14472;56.880;16.658;2023-11-22T08:24:16;1.60;99.90
26907;DHT22;14472;56.880;16.658;2023-11-22T08:26:44;1.60;99.90
26907;DHT22;14472;56.880;16.658;2023-11-22T08:29:10;1.60;99.90
26907;DHT22;14472;56.880;16.658;2023-11-22T08:31:37;1.60;99.90
26907;DHT22;14472;56.880;16.658;2023-11-22T08:34:02;1.60;99.90
26907;DHT22;14472;56.880;16.658;2023-11-22T08:36:33;1.70;99.90
26907;DHT22;14472;56.880;16.658;2023-11-22T08:39:00;1.70;99.90
26907;DHT22;14472;56.880;16.658;2023-11-22T08:41:27;1.80;99.90
26907;DHT22;14472;56.880;16.658;2023-11-22T08:43:55;1.80;99.90
26907;DHT22;14472;56.880;16.658;2023-11-22T08:46:21;1.80;99.90
26907;DHT22;14472;56.880;16.658;2023-11-22T08:48:47;1.80;99.90
26907;DHT22;14472;56.880;16.658;2023-11-22T08:51:13;1.90;99.90
26907;DHT22;14472;56.880;16.658;2023-11-22T08:53:39;1.90;99.90
26907;DHT22;14472;56.880;16.658;2023-11-22T08:56:05;2.00;99.90
26907;DHT22;14472;56.880;16.658;2023-11-22T08:58:31;2.00;99.90
26907;DHT22;14472;56.880;16.658;2023-11-22T09:00:57;2.00;99.90
26907;DHT22;14472;56.880;16.658;2023-11-22T09:03:24;2.10;99.90
26907;DHT22;14472;56.880;16.658;2023-11-22T09:05:49;2.10;99.90
26907;DHT22;14472;56.880;16.658;2023-11-22T09:08:15;2.10;99.90
26907;DHT22;14472;56.880;16.658;2023-11-22T09:10:42;2.20;99.90
26907;DHT22;14472;56.880;16.658;2023-11-22T09:13:08;2.20;99.90
26907;DHT22;14472;56.880;16.658;2023-11-22T09:15:35;2.20;99.90
26907;DHT22;14472;56.880;16.658;2023-11-22T09:18:01;2.20;99.90
26907;DHT22;14472;56.880;16.658;2023-11-22T09:20:27;2.30;99.90
26907;DHT22;14472;56.880;16.658;2023-11-22T09:22:54;2.30;99.90
26907;DHT22;14472;56.880;16.658;2023-11-22T09:25:21;2.40;99.90
26907;DHT22;14472;56.880;16.658;2023-11-22T09:27:49;2.40;99.90
26907;DHT22;14472;56.880;16.658;2023-11-22T09:30:20;2.50;99.90
26907;DHT22;14472;56.880;16.658;2023-11-22T09:35:29;2.90;99.90
26907;DHT22;14472;56.880;16.658;2023-11-22T09:37:57;3.00;99.90
26907;DHT22;14472;56.880;16.658;2023-11-22T09:40:23;2.50;99.90
26907;DHT22;14472;56.880;16.658;2023-11-22T09:42:49;2.40;99.90
26907;DHT22;14472;56.880;16.658;2023-11-22T09:45:17;2.00;99.90
26907;DHT22;14472;56.880;16.658;2023-11-22T09:47:47;2.00;99.90
26907;DHT22;14472;56.880;16.658;2023-11-22T09:50:42;1.90;99.90
26907;DHT22;14472;56.880;16.658;2023-11-22T09:53:25;2.20;99.90
26907;DHT22;14472;56.880;16.658;2023-11-22T09:55:57;2.10;99.90
26907;DHT22;14472;56.880;16.658;2023-11-22T09:58:23;1.90;99.90
26907;DHT22;14472;56.880;16.658;2023-11-22T10:00:50;1.80;99.90
26907;DHT22;14472;56.880;16.658;2023-11-22T10:03:18;1.80;99.90
26907;DHT22;14472;56.880;16.658;2023-11-22T10:05:45;1.80;99.90
26907;DHT22;14472;56.880;16.658;2023-11-22T10:08:11;1.80;99.90
26907;DHT22;14472;56.880;16.658;2023-11-22T10:10:38;1.80;99.90
26907;DHT22;14472;56.880;16.658;2023-11-22T10:13:05;1.80;99.90
26907;DHT22;14472;56.880;16.658;2023-11-22T10:15:31;1.80;99.90
26907;DHT22;14472;56.880;16.658;2023-11-22T10:17:59;1.80;99.90
26907;DHT22;14472;56.880;16.658;2023-11-22T10:20:40;1.80;99.90
26907;DHT22;14472;56.880;16.658;2023-11-22T10:23:24;1.80;99.90
26907;DHT22;14472;56.880;16.658;2023-11-22T10:25:54;1.80;99.90
26907;DHT22;14472;56.880;16.658;2023-11-22T10:28:22;1.80;99.90
26907;DHT22;14472;56.880;16.658;2023-11-22T10:30:50;1.80;99.90
26907;DHT22;14472;56.880;16.658;2023-11-22T10:33:19;1.80;99.90
26907;DHT22;14472;56.880;16.658;2023-11-22T10:35:50;1.80;99.90
26907;DHT22;14472;56.880;16.658;2023-11-22T10:38:19;1.80;99.90
26907;DHT22;14472;56.880;16.658;2023-11-22T10:40:46;1.70;99.90
26907;DHT22;14472;56.880;16.658;2023-11-22T10:43:14;1.70;99.90
26907;DHT22;14472;56.880;16.658;2023-11-22T10:45:41;1.70;99.90
26907;DHT22;14472;56.880;16.658;2023-11-22T10:48:11;1.70;99.90
26907;DHT22;14472;56.880;16.658;2023-11-22T10:50:37;1.60;99.90
26907;DHT22;14472;56.880;16.658;2023-11-22T10:53:07;1.70;99.90
26907;DHT22;14472;56.880;16.658;2023-11-22T10:55:33;1.60;99.90
26907;DHT22;14472;56.880;16.658;2023-11-22T10:58:04;1.60;99.90
26907;DHT22;14472;56.880;16.658;2023-11-22T11:00:32;1.60;99.90
26907;DHT22;14472;56.880;16.658;2023-11-22T11:03:19;1.60;99.90
26907;DHT22;14472;56.880;16.658;2023-11-22T11:05:59;1.60;99.90
26907;DHT22;14472;56.880;16.658;2023-11-22T11:08:30;1.60;99.90
26907;DHT22;14472;56.880;16.658;2023-11-22T11:10:57;1.70;99.90
26907;DHT22;14472;56.880;16.658;2023-11-22T11:13:24;1.60;99.90
26907;DHT22;14472;56.880;16.658;2023-11-22T11:15:52;1.60;99.90
26907;DHT22;14472;56.880;16.658;2023-11-22T11:18:18;1.60;99.90
26907;DHT22;14472;56.880;16.658;2023-11-22T11:23:19;1.60;99.90
26907;DHT22;14472;56.880;16.658;2023-11-22T11:26:08;1.60;99.90
26907;DHT22;14472;56.880;16.658;2023-11-22T11:28:47;1.60;99.90
26907;DHT22;14472;56.880;16.658;2023-11-22T11:31:13;1.60;99.90
26907;DHT22;14472;56.880;16.658;2023-11-22T11:36:25;1.50;99.90
26907;DHT22;14472;56.880;16.658;2023-11-22T11:38:52;1.50;99.90
26907;DHT22;14472;56.880;16.658;2023-11-22T11:41:26;1.50;99.90
26907;DHT22;14472;56.880;16.658;2023-11-22T11:43:57;1.50;99.90
26907;DHT22;14472;56.880;16.658;2023-11-22T11:46:23;1.60;99.90
26907;DHT22;14472;56.880;16.658;2023-11-22T11:48:51;1.60;99.90
26907;DHT22;14472;56.880;16.658;2023-11-22T11:51:19;1.60;99.90
26907;DHT22;14472;56.880;16.658;2023-11-22T11:53:45;1.60;99.90
26907;DHT22;14472;56.880;16.658;2023-11-22T11:56:12;1.70;99.90
26907;DHT22;14472;56.880;16.658;2023-11-22T11:58:38;1.70;99.90
26907;DHT22;14472;56.880;16.658;2023-11-22T12:01:05;1.60;99.90
26907;DHT22;14472;56.880;16.658;2023-11-22T12:03:32;1.50;99.90
26907;DHT22;14472;56.880;16.658;2023-11-22T12:05:58;1.60;99.90
26907;DHT22;14472;56.880;16.658;2023-11-22T12:08:23;1.60;99.90
26907;DHT22;14472;56.880;16.658;2023-11-22T12:10:49;1.60;99.90
26907;DHT22;14472;56.880;16.658;2023-11-22T12:13:22;1.70;99.90
26907;DHT22;14472;56.880;16.658;2023-11-22T12:15:47;1.70;99.90
26907;DHT22;14472;56.880;16.658;2023-11-22T12:18:13;1.70;99.90
26907;DHT22;14472;56.880;16.658;2023-11-22T12:20:39;1.70;99.90
26907;DHT22;14472;56.880;16.658;2023-11-22T12:23:05;1.70;99.90
26907;DHT22;14472;56.880;16.658;2023-11-22T12:25:32;1.80;99.90
26907;DHT22;14472;56.880;16.658;2023-11-22T12:27:58;1.80;99.90
26907;DHT22;14472;56.880;16.658;2023-11-22T12:32:54;1.80;99.90
26907;DHT22;14472;56.880;16.658;2023-11-22T12:35:19;1.90;99.90
26907;DHT22;14472;56.880;16.658;2023-11-22T12:37:45;1.90;99.90
26907;DHT22;14472;56.880;16.658;2023-11-22T12:40:12;1.90;99.90
26907;DHT22;14472;56.880;16.658;2023-11-22T12:42:49;2.00;99.90
26907;DHT22;14472;56.880;16.658;2023-11-22T12:45:25;1.90;99.90
26907;DHT22;14472;56.880;16.658;2023-11-22T12:47:51;2.00;99.90
26907;DHT22;14472;56.880;16.658;2023-11-22T12:50:35;2.10;99.90
26907;DHT22;14472;56.880;16.658;2023-11-22T12:53:14;2.10;99.90
26907;DHT22;14472;56.880;16.658;2023-11-22T12:55:44;2.10;99.90
26907;DHT22;14472;56.880;16.658;2023-11-22T12:58:11;2.10;99.90
26907;DHT22;14472;56.880;16.658;2023-11-22T13:00:41;2.20;99.90
26907;DHT22;14472;56.880;16.658;2023-11-22T13:03:07;2.30;99.90
26907;DHT22;14472;56.880;16.658;2023-11-22T13:05:40;2.30;99.90
26907;DHT22;14472;56.880;16.658;2023-11-22T13:08:10;2.40;99.90
26907;DHT22;14472;56.880;16.658;2023-11-22T13:10:49;2.40;99.90
26907;DHT22;14472;56.880;16.658;2023-11-22T13:13:23;2.50;99.90
26907;DHT22;14472;56.880;16.658;2023-11-22T13:15:50;2.50;99.90
26907;DHT22;14472;56.880;16.658;2023-11-22T13:18:16;2.50;99.90
26907;DHT22;14472;56.880;16.658;2023-11-22T13:20:42;2.50;99.90
26907;DHT22;14472;56.880;16.658;2023-11-22T13:23:09;2.50;99.90
26907;DHT22;14472;56.880;16.658;2023-11-22T13:25:35;2.60;99.90
26907;DHT22;14472;56.880;16.658;2023-11-22T13:28:00;2.60;99.90
26907;DHT22;14472;56.880;16.658;2023-11-22T13:30:26;2.60;99.90
26907;DHT22;14472;56.880;16.658;2023-11-22T13:32:55;2.70;99.90
26907;DHT22;14472;56.880;16.658;2023-11-22T13:35:28;2.80;99.90
26907;DHT22;14472;56.880;16.658;2023-11-22T13:37:58;2.80;99.90
26907;DHT22;14472;56.880;16.658;2023-11-22T13:40:24;2.90;99.90
26907;DHT22;14472;56.880;16.658;2023-11-22T13:42:52;2.90;99.90
26907;DHT22;14472;56.880;16.658;2023-11-22T13:45:19;2.90;99.90
26907;DHT22;14472;56.880;16.658;2023-11-22T13:47:47;3.00;99.90
26907;DHT22;14472;56.880;16.658;2023-11-22T13:50:17;3.00;99.90
26907;DHT22;14472;56.880;16.658;2023-11-22T13:52:52;3.00;99.90
26907;DHT22;14472;56.880;16.658;2023-11-22T13:55:19;3.10;99.90
26907;DHT22;14472;56.880;16.658;2023-11-22T13:57:53;3.20;99.90
26907;DHT22;14472;56.880;16.658;2023-11-22T14:00:20;3.30;99.90
26907;DHT22;14472;56.880;16.658;2023-11-22T14:02:53;3.50;99.90
26907;DHT22;14472;56.880;16.658;2023-11-22T14:05:24;3.60;99.90
26907;DHT22;14472;56.880;16.658;2023-11-22T14:07:50;3.80;99.90
26907;DHT22;14472;56.880;16.658;2023-11-22T14:10:17;3.60;99.90
26907;DHT22;14472;56.880;16.658;2023-11-22T14:12:44;3.30;99.90
26907;DHT22;14472;56.880;16.658;2023-11-22T14:15:11;3.00;99.90
26907;DHT22;14472;56.880;16.658;2023-11-22T14:17:37;3.00;99.90
26907;DHT22;14472;56.880;16.658;2023-11-22T14:20:15;3.00;99.90
26907;DHT22;14472;56.880;16.658;2023-11-22T14:22:42;3.30;99.90
26907;DHT22;14472;56.880;16.658;2023-11-22T14:25:09;3.20;99.90
26907;DHT22;14472;56.880;16.658;2023-11-22T14:27:44;3.10;99.90
26907;DHT22;14472;56.880;16.658;2023-11-22T14:30:11;3.00;99.90
26907;DHT22;14472;56.880;16.658;2023-11-22T14:32:40;3.00;99.90
26907;DHT22;14472;56.880;16.658;2023-11-22T14:35:08;3.10;99.90
26907;DHT22;14472;56.880;16.658;2023-11-22T14:37:34;3.10;99.90
26907;DHT22;14472;56.880;16.658;2023-11-22T14:40:01;3.00;99.90
26907;DHT22;14472;56.880;16.658;2023-11-22T14:42:31;3.10;99.90
26907;DHT22;14472;56.880;16.658;2023-11-22T14:44:57;3.10;99.90
26907;DHT22;14472;56.880;16.658;2023-11-22T14:47:23;3.10;99.90
26907;DHT22;14472;56.880;16.658;2023-11-22T14:49:50;3.10;99.90
26907;DHT22;14472;56.880;16.658;2023-11-22T14:52:16;3.10;99.90
26907;DHT22;14472;56.880;16.658;2023-11-22T14:54:43;3.20;99.90
26907;DHT22;14472;56.880;16.658;2023-11-22T14:57:12;3.10;99.90
26907;DHT22;14472;56.880;16.658;2023-11-22T14:59:41;3.20;99.90
26907;DHT22;14472;56.880;16.658;2023-11-22T15:02:07;3.20;99.90
26907;DHT22;14472;56.880;16.658;2023-11-22T15:04:37;3.20;99.90
26907;DHT22;14472;56.880;16.658;2023-11-22T15:07:04;3.20;99.90
26907;DHT22;14472;56.880;16.658;2023-11-22T15:09:32;3.30;99.90
26907;DHT22;14472;56.880;16.658;2023-11-22T15:12:00;3.30;99.90
26907;DHT22;14472;56.880;16.658;2023-11-22T15:14:30;3.20;99.90
26907;DHT22;14472;56.880;16.658;2023-11-22T15:17:01;3.30;99.90
26907;DHT22;14472;56.880;16.658;2023-11-22T15:19:29;3.30;99.90
26907;DHT22;14472;56.880;16.658;2023-11-22T15:21:56;3.30;99.90
26907;DHT22;14472;56.880;16.658;2023-11-22T15:24:21;3.30;99.90
26907;DHT22;14472;56.880;16.658;2023-11-22T15:26:48;3.30;99.90
26907;DHT22;14472;56.880;16.658;2023-11-22T15:29:14;3.40;99.90
26907;DHT22;14472;56.880;16.658;2023-11-22T15:31:42;3.40;99.90
26907;DHT22;14472;56.880;16.658;2023-11-22T15:34:09;3.40;99.90
26907;DHT22;14472;56.880;16.658;2023-11-22T15:36:34;3.40;99.90
26907;DHT22;14472;56.880;16.658;2023-11-22T15:39:01;3.40;99.90
26907;DHT22;14472;56.880;16.658;2023-11-22T15:41:27;3.50;99.90
26907;DHT22;14472;56.880;16.658;2023-11-22T15:43:53;3.50;99.90